createdAt,value
2017-10-04T00:00:43.948Z,12.11
2017-10-04T00:01:43.921Z,12.13
2017-10-04T00:02:43.895Z,12.08
2017-10-04T00:03:43.872Z,12.05
2017-10-04T00:04:43.851Z,12.07
2017-10-04T00:05:43.830Z,12.07
2017-10-04T00:06:43.813Z,12.13
2017-10-04T00:07:43.783Z,12.07
2017-10-04T00:08:43.759Z,12.08
2017-10-04T00:09:43.793Z,12.16
2017-10-04T00:10:43.407Z,12.07
2017-10-04T00:11:43.705Z,12.07
2017-10-04T00:12:43.669Z,12.13
2017-10-04T00:13:43.651Z,12.13
2017-10-04T00:14:43.624Z,12.11
2017-10-04T00:15:43.605Z,12.05
2017-10-04T00:16:43.589Z,12.11
2017-10-04T00:17:43.563Z,12.08
2017-10-04T00:18:43.537Z,12.15
2017-10-04T00:19:43.520Z,12.15
2017-10-04T00:20:43.491Z,12.12
2017-10-04T00:21:43.465Z,12.04
2017-10-04T00:22:43.447Z,12.15
2017-10-04T00:23:43.421Z,12.11
2017-10-04T00:24:43.410Z,12.15
2017-10-04T00:25:43.377Z,12.19
2017-10-04T00:26:43.358Z,12.12
2017-10-04T00:27:43.337Z,12.22
2017-10-04T00:28:43.321Z,12.22
2017-10-04T00:29:43.303Z,12.13
2017-10-04T00:30:43.267Z,12.21
2017-10-04T00:31:43.250Z,12.07
2017-10-04T00:32:43.219Z,12.15
2017-10-04T00:33:43.225Z,12.05
2017-10-04T00:34:43.179Z,12.21
2017-10-04T00:35:43.165Z,12.19
2017-10-04T00:36:43.123Z,12.19
2017-10-04T00:37:43.107Z,12.16
2017-10-04T00:38:43.090Z,12.12
2017-10-04T00:39:43.054Z,12.12
2017-10-04T00:40:43.045Z,12.22
2017-10-04T00:41:43.023Z,12.16
2017-10-04T00:42:42.990Z,12.18
2017-10-04T00:43:42.971Z,12.21
2017-10-04T00:44:42.950Z,12.22
2017-10-04T00:45:42.921Z,12.08
2017-10-04T00:46:42.901Z,12.08
2017-10-04T00:47:42.879Z,12.07
2017-10-04T00:48:42.866Z,12.12
2017-10-04T00:49:42.840Z,12.11
2017-10-04T00:50:42.807Z,12.19
2017-10-04T00:51:42.482Z,12.12
2017-10-04T00:52:42.770Z,12.19
2017-10-04T00:53:42.747Z,12.22
2017-10-04T00:54:42.730Z,12.11
2017-10-04T00:55:42.701Z,12.12
2017-10-04T00:56:42.680Z,12.07
2017-10-04T00:57:42.650Z,12.11
2017-10-04T00:58:42.627Z,12.07
2017-10-04T00:59:42.610Z,12.12
2017-10-04T01:00:42.592Z,12.15
2017-10-04T01:01:42.561Z,12.12
2017-10-04T01:02:42.537Z,12.16
2017-10-04T01:03:42.515Z,12.15
2017-10-04T01:04:42.496Z,12.15
2017-10-04T01:05:42.476Z,12.13
2017-10-04T01:06:42.447Z,12.12
2017-10-04T01:07:42.428Z,12.11
2017-10-04T01:08:42.101Z,12.15
2017-10-04T01:09:42.385Z,12.18
2017-10-04T01:10:42.360Z,12.19
2017-10-04T01:11:42.359Z,12.18
2017-10-04T01:12:42.318Z,12.15
2017-10-04T01:13:42.300Z,12.22
2017-10-04T01:14:42.268Z,12.18
2017-10-04T01:15:42.248Z,12.15
2017-10-04T01:16:42.223Z,12.15
2017-10-04T01:17:42.196Z,12.18
2017-10-04T01:18:42.178Z,12.18
2017-10-04T01:19:42.157Z,12.15
2017-10-04T01:20:42.128Z,12.15
2017-10-04T01:21:42.107Z,12.12
2017-10-04T01:22:41.778Z,12.08
2017-10-04T01:23:42.065Z,12.12
2017-10-04T01:24:42.045Z,12.04
2017-10-04T01:25:42.026Z,12.13
2017-10-04T01:26:41.998Z,12.13
2017-10-04T01:27:41.976Z,12.11
2017-10-04T01:28:41.954Z,12.11
2017-10-04T01:29:41.933Z,12.08
2017-10-04T01:30:41.903Z,12.01
2017-10-04T01:31:41.879Z,12.07
2017-10-04T01:32:41.557Z,12.11
2017-10-04T01:33:41.830Z,12.01
2017-10-04T01:34:41.819Z,12.04
2017-10-04T01:35:41.787Z,12.08
2017-10-04T01:36:41.775Z,12.01
2017-10-04T01:37:41.793Z,12.11
2017-10-04T01:38:41.724Z,12.11
2017-10-04T01:39:41.701Z,12.07
2017-10-04T01:40:41.678Z,12.05
2017-10-04T01:41:41.650Z,12.05
2017-10-04T01:42:41.685Z,12.05
2017-10-04T01:43:41.618Z,12.04
2017-10-04T01:44:41.592Z,12.12
2017-10-04T01:45:41.563Z,12.05
2017-10-04T01:46:41.548Z,12.13
2017-10-04T01:47:41.211Z,12.07
2017-10-04T01:48:41.502Z,12.08
2017-10-04T01:49:41.473Z,12.07
2017-10-04T01:50:41.452Z,12.01
2017-10-04T01:51:41.428Z,12.04
2017-10-04T01:52:41.404Z,12.05
2017-10-04T01:53:41.386Z,12.07
2017-10-04T01:54:41.363Z,12.08
2017-10-04T01:55:41.336Z,12.07
2017-10-04T01:56:41.312Z,12.16
2017-10-04T01:57:41.301Z,12.13
2017-10-04T01:58:40.961Z,12.13
2017-10-04T01:59:41.248Z,12.16
2017-10-04T02:00:41.225Z,12.08
2017-10-04T02:01:41.203Z,12.05
2017-10-04T02:02:41.187Z,12.03
2017-10-04T02:03:41.212Z,12.04
2017-10-04T02:04:41.138Z,12.13
2017-10-04T02:05:41.159Z,12.01
2017-10-04T02:06:41.094Z,12.03
2017-10-04T02:07:41.069Z,12.05
2017-10-04T02:08:41.094Z,12.03
2017-10-04T02:09:41.017Z,12.04
2017-10-04T02:10:41.003Z,12.04
2017-10-04T02:11:40.988Z,12.08
2017-10-04T02:12:40.953Z,12.01
2017-10-04T02:13:40.938Z,12.04
2017-10-04T02:14:40.909Z,12
2017-10-04T02:15:40.887Z,12.05
2017-10-04T02:16:40.860Z,12.13
2017-10-04T02:17:40.839Z,12.07
2017-10-04T02:18:40.814Z,12.08
2017-10-04T02:19:40.796Z,12.08
2017-10-04T02:20:40.792Z,12.08
2017-10-04T02:21:40.750Z,12.12
2017-10-04T02:22:40.417Z,12.12
2017-10-04T02:23:40.702Z,12.08
2017-10-04T02:24:40.690Z,12.16
2017-10-04T02:25:40.659Z,12.22
2017-10-04T02:26:40.629Z,12.25
2017-10-04T02:27:40.613Z,12.19
2017-10-04T02:28:40.646Z,12.18
2017-10-04T02:29:40.569Z,12.18
2017-10-04T02:30:40.548Z,12.21
2017-10-04T02:31:40.535Z,12.18
2017-10-04T02:32:40.232Z,12.18
2017-10-04T02:33:40.167Z,12.16
2017-10-04T02:34:40.456Z,12.18
2017-10-04T02:35:40.429Z,12.18
2017-10-04T02:36:40.404Z,12.07
2017-10-04T02:37:40.389Z,12.12
2017-10-04T02:38:40.368Z,12.13
2017-10-04T02:39:40.035Z,12.08
2017-10-04T02:40:40.313Z,12.08
2017-10-04T02:41:40.295Z,12.12
2017-10-04T02:42:40.279Z,12.11
2017-10-04T02:43:40.257Z,12.08
2017-10-04T02:44:39.918Z,12.12
2017-10-04T02:45:40.205Z,12.04
2017-10-04T02:46:40.182Z,12.05
2017-10-04T02:47:39.853Z,12.13
2017-10-04T02:48:40.139Z,11.98
2017-10-04T02:49:40.126Z,11.98
2017-10-04T02:50:40.098Z,12.03
2017-10-04T02:51:40.077Z,12.03
2017-10-04T02:52:40.048Z,11.98
2017-10-04T02:53:40.025Z,12
2017-10-04T02:54:40.004Z,11.98
2017-10-04T02:55:39.976Z,12.07
2017-10-04T02:56:39.950Z,12.03
2017-10-04T02:57:39.926Z,12.08
2017-10-04T02:58:39.906Z,12.07
2017-10-04T02:59:39.884Z,12.04
2017-10-04T03:00:39.882Z,12.07
2017-10-04T03:01:39.834Z,12.07
2017-10-04T03:02:39.820Z,12.08
2017-10-04T03:03:39.798Z,12.04
2017-10-04T03:04:39.773Z,12.05
2017-10-04T03:05:39.758Z,12.12
2017-10-04T03:06:39.727Z,12.11
2017-10-04T03:07:39.709Z,12.07
2017-10-04T03:08:39.080Z,12.07
2017-10-04T03:09:39.711Z,12.13
2017-10-04T03:10:39.635Z,12.12
2017-10-04T03:11:39.617Z,12
2017-10-04T03:12:39.590Z,12.11
2017-10-04T03:13:39.568Z,12.07
2017-10-04T03:14:39.553Z,12.08
2017-10-04T03:15:39.520Z,12.15
2017-10-04T03:16:39.502Z,12.16
2017-10-04T03:17:39.482Z,12.07
2017-10-04T03:18:39.462Z,12.13
2017-10-04T03:19:39.425Z,12.16
2017-10-04T03:20:39.406Z,12.22
2017-10-04T03:21:39.387Z,12.16
2017-10-04T03:22:39.366Z,12.18
2017-10-04T03:23:39.346Z,12.15
2017-10-04T03:24:39.318Z,12.13
2017-10-04T03:25:39.307Z,12.08
2017-10-04T03:26:39.289Z,12.03
2017-10-04T03:27:39.252Z,12.04
2017-10-04T03:28:39.231Z,12.11
2017-10-04T03:29:39.207Z,12.07
2017-10-04T03:30:39.185Z,12.03
2017-10-04T03:31:39.173Z,12.01
2017-10-04T03:32:39.137Z,12.01
2017-10-04T03:33:38.816Z,11.96
2017-10-04T03:34:39.091Z,11.97
2017-10-04T03:35:39.073Z,12
2017-10-04T03:36:39.049Z,11.96
2017-10-04T03:37:39.023Z,11.93
2017-10-04T03:38:39.038Z,11.88
2017-10-04T03:39:38.983Z,11.96
2017-10-04T03:40:38.648Z,11.84
2017-10-04T03:41:38.960Z,11.96
2017-10-04T03:42:38.912Z,11.96
2017-10-04T03:43:38.886Z,11.94
2017-10-04T03:44:38.863Z,11.84
2017-10-04T03:45:38.893Z,11.96
2017-10-04T03:46:38.822Z,11.96
2017-10-04T03:47:38.795Z,11.94
2017-10-04T03:48:38.473Z,11.84
2017-10-04T03:49:38.754Z,11.87
2017-10-04T03:50:38.421Z,11.82
2017-10-04T03:51:38.704Z,11.85
2017-10-04T03:52:38.682Z,11.82
2017-10-04T03:53:38.657Z,11.79
2017-10-04T03:54:38.633Z,11.84
2017-10-04T03:55:38.618Z,11.82
2017-10-04T03:56:38.592Z,11.79
2017-10-04T03:57:38.570Z,11.84
2017-10-04T03:58:38.548Z,11.87
2017-10-04T03:59:38.550Z,11.88
2017-10-04T04:00:38.498Z,11.96
2017-10-04T04:01:38.480Z,11.82
2017-10-04T04:02:38.465Z,11.94
2017-10-04T04:03:38.434Z,11.81
2017-10-04T04:04:38.426Z,11.81
2017-10-04T04:05:38.384Z,11.87
2017-10-04T04:06:38.369Z,11.94
2017-10-04T04:07:38.347Z,11.87
2017-10-04T04:08:38.012Z,11.82
2017-10-04T04:09:38.299Z,11.9
2017-10-04T04:10:38.271Z,11.81
2017-10-04T04:11:38.254Z,11.77
2017-10-04T04:12:38.225Z,11.82
2017-10-04T04:13:38.204Z,11.87
2017-10-04T04:14:38.179Z,11.81
2017-10-04T04:15:38.169Z,11.87
2017-10-04T04:16:38.136Z,11.75
2017-10-04T04:17:38.145Z,11.98
2017-10-04T04:18:38.089Z,11.94
2017-10-04T04:19:37.761Z,11.88
2017-10-04T04:20:38.047Z,11.88
2017-10-04T04:21:38.025Z,11.87
2017-10-04T04:22:38.001Z,11.88
2017-10-04T04:23:37.982Z,11.98
2017-10-04T04:24:37.963Z,11.93
2017-10-04T04:25:37.926Z,11.87
2017-10-04T04:26:37.908Z,11.84
2017-10-04T04:27:37.885Z,11.7
2017-10-04T04:28:37.866Z,11.7
2017-10-04T04:29:37.846Z,11.81
2017-10-04T04:30:37.821Z,11.75
2017-10-04T04:31:37.796Z,11.72
2017-10-04T04:32:37.791Z,11.7
2017-10-04T04:33:37.749Z,11.66
2017-10-04T04:34:37.726Z,11.57
2017-10-04T04:35:37.708Z,11.66
2017-10-04T04:36:37.679Z,11.57
2017-10-04T04:37:37.655Z,11.66
2017-10-04T04:38:37.638Z,11.59
2017-10-04T04:39:37.616Z,11.64
2017-10-04T04:40:37.281Z,11.56
2017-10-04T04:41:37.565Z,11.6
2017-10-04T04:42:37.546Z,11.59
2017-10-04T04:43:37.521Z,11.56
2017-10-04T04:44:37.507Z,11.51
2017-10-04T04:45:37.221Z,11.53
2017-10-04T04:46:37.457Z,11.53
2017-10-04T04:47:37.432Z,11.48
2017-10-04T04:48:37.407Z,11.54
2017-10-04T04:49:37.386Z,11.53
2017-10-04T04:50:37.107Z,11.57
2017-10-04T04:51:37.336Z,11.53
2017-10-04T04:52:37.013Z,11.44
2017-10-04T04:53:37.295Z,11.42
2017-10-04T04:54:37.285Z,11.45
2017-10-04T04:55:37.253Z,11.49
2017-10-04T04:56:37.229Z,11.48
2017-10-04T04:57:37.208Z,11.42
2017-10-04T04:58:37.177Z,11.48
2017-10-04T04:59:36.852Z,11.59
2017-10-04T05:00:37.144Z,11.46
2017-10-04T05:01:37.120Z,11.56
2017-10-04T05:02:36.794Z,11.51
2017-10-04T05:03:37.073Z,11.51
2017-10-04T05:04:37.044Z,11.51
2017-10-04T05:05:36.713Z,11.44
2017-10-04T05:06:37.093Z,11.41
2017-10-04T05:07:36.984Z,11.48
2017-10-04T05:08:36.962Z,11.53
2017-10-04T05:09:36.928Z,11.51
2017-10-04T05:10:36.598Z,11.48
2017-10-04T05:11:36.887Z,11.49
2017-10-04T05:12:36.863Z,11.44
2017-10-04T05:13:36.833Z,11.33
2017-10-04T05:14:36.812Z,11.45
2017-10-04T05:15:36.484Z,11.3
2017-10-04T05:16:36.774Z,11.38
2017-10-04T05:17:36.744Z,11.35
2017-10-04T05:18:36.413Z,11.31
2017-10-04T05:19:36.702Z,11.27
2017-10-04T05:20:36.676Z,11.2
2017-10-04T05:21:36.663Z,11.27
2017-10-04T05:22:36.634Z,11.3
2017-10-04T05:23:36.608Z,11.26
2017-10-04T05:24:36.585Z,11.33
2017-10-04T05:25:36.566Z,11.24
2017-10-04T05:26:36.544Z,11.27
2017-10-04T05:27:36.526Z,11.24
2017-10-04T05:28:36.493Z,11.16
2017-10-04T05:29:36.470Z,11.36
2017-10-04T05:30:36.138Z,11.24
2017-10-04T05:31:36.455Z,11.36
2017-10-04T05:32:36.407Z,11.27
2017-10-04T05:33:36.379Z,11.38
2017-10-04T05:34:36.053Z,11.39
2017-10-04T05:35:36.342Z,11.35
2017-10-04T05:36:36.313Z,11.38
2017-10-04T05:37:36.296Z,11.38
2017-10-04T05:38:36.265Z,11.42
2017-10-04T05:39:36.239Z,11.33
2017-10-04T05:40:36.214Z,11.36
2017-10-04T05:41:36.195Z,11.21
2017-10-04T05:42:36.175Z,11.35
2017-10-04T05:43:36.166Z,11.33
2017-10-04T05:44:36.130Z,11.21
2017-10-04T05:45:36.101Z,11.28
2017-10-04T05:46:36.080Z,11.35
2017-10-04T05:47:36.058Z,11.35
2017-10-04T05:48:36.040Z,11.31
2017-10-04T05:49:36.015Z,11.21
2017-10-04T05:50:35.990Z,11.35
2017-10-04T05:51:35.969Z,11.35
2017-10-04T05:52:35.939Z,11.27
2017-10-04T05:53:35.920Z,11.35
2017-10-04T05:54:35.893Z,11.38
2017-10-04T05:55:35.874Z,11.33
2017-10-04T05:56:35.853Z,11.28
2017-10-04T05:57:35.825Z,11.3
2017-10-04T05:58:35.806Z,11.28
2017-10-04T05:59:35.787Z,11.36
2017-10-04T06:00:35.761Z,11.3
2017-10-04T06:01:35.735Z,11.31
2017-10-04T06:02:35.712Z,11.26
2017-10-04T06:03:35.698Z,11.19
2017-10-04T06:04:35.669Z,11.35
2017-10-04T06:05:35.644Z,11.38
2017-10-04T06:06:35.622Z,11.35
2017-10-04T06:07:35.593Z,11.35
2017-10-04T06:08:35.576Z,11.44
2017-10-04T06:09:35.247Z,11.44
2017-10-04T06:10:35.525Z,11.42
2017-10-04T06:11:35.502Z,11.35
2017-10-04T06:12:35.485Z,11.44
2017-10-04T06:13:35.458Z,11.49
2017-10-04T06:14:35.440Z,11.42
2017-10-04T06:15:35.417Z,11.42
2017-10-04T06:16:35.084Z,11.48
2017-10-04T06:17:35.363Z,11.53
2017-10-04T06:18:35.346Z,11.51
2017-10-04T06:19:35.330Z,11.56
2017-10-04T06:20:34.992Z,11.6
2017-10-04T06:21:35.282Z,11.59
2017-10-04T06:22:35.263Z,11.72
2017-10-04T06:23:35.234Z,11.79
2017-10-04T06:24:35.217Z,11.74
2017-10-04T06:25:34.886Z,11.77
2017-10-04T06:26:35.166Z,11.98
2017-10-04T06:27:35.195Z,12.11
2017-10-04T06:28:35.132Z,12.12
2017-10-04T06:29:35.097Z,12.3
2017-10-04T06:30:35.071Z,12.46
2017-10-04T06:31:35.056Z,12.61
2017-10-04T06:32:35.041Z,12.76
2017-10-04T06:33:35.011Z,12.92
2017-10-04T06:34:34.987Z,12.98
2017-10-04T06:35:34.961Z,12.98
2017-10-04T06:36:34.950Z,12.98
2017-10-04T06:37:34.943Z,13.03
2017-10-04T06:38:34.889Z,13.06
2017-10-04T06:39:34.938Z,13.12
2017-10-04T06:40:34.855Z,13.13
2017-10-04T06:41:34.826Z,13.12
2017-10-04T06:42:34.806Z,13.04
2017-10-04T06:43:34.785Z,13.12
2017-10-04T06:44:34.763Z,13.17
2017-10-04T06:45:34.747Z,13.22
2017-10-04T06:46:34.723Z,13.31
2017-10-04T06:47:34.392Z,13.28
2017-10-04T06:48:34.738Z,13.38
2017-10-04T06:49:34.708Z,13.39
2017-10-04T06:50:34.633Z,13.44
2017-10-04T06:51:34.607Z,13.51
2017-10-04T06:52:34.587Z,13.46
2017-10-04T06:53:34.615Z,13.53
2017-10-04T06:54:34.542Z,13.57
2017-10-04T06:55:34.513Z,13.76
2017-10-04T06:56:34.496Z,13.83
2017-10-04T06:57:34.474Z,13.96
2017-10-04T06:58:34.459Z,14.06
2017-10-04T06:59:34.485Z,14.3
2017-10-04T07:00:34.415Z,14.45
2017-10-04T07:01:34.396Z,14.63
2017-10-04T07:02:34.063Z,14.78
2017-10-04T07:03:34.348Z,14.66
2017-10-04T07:04:34.336Z,14.56
2017-10-04T07:05:34.311Z,14.44
2017-10-04T07:06:34.440Z,14.3
2017-10-04T07:07:34.262Z,14.17
2017-10-04T07:08:34.251Z,14.12
2017-10-04T07:09:34.225Z,14.01
2017-10-04T07:10:34.199Z,13.96
2017-10-04T07:11:33.876Z,13.84
2017-10-04T07:12:34.160Z,13.8
2017-10-04T07:13:34.139Z,13.72
2017-10-04T07:14:34.115Z,13.57
2017-10-04T07:15:34.102Z,13.63
2017-10-04T07:16:34.069Z,13.51
2017-10-04T07:17:34.054Z,13.39
2017-10-04T07:18:34.039Z,13.36
2017-10-04T07:19:34.006Z,13.32
2017-10-04T07:20:33.987Z,13.35
2017-10-04T07:21:33.969Z,13.22
2017-10-04T07:22:33.946Z,13.25
2017-10-04T07:23:33.923Z,13.25
2017-10-04T07:24:33.903Z,13.28
2017-10-04T07:25:33.876Z,13.21
2017-10-04T07:26:33.862Z,13.28
2017-10-04T07:27:33.844Z,13.22
2017-10-04T07:28:33.813Z,13.21
2017-10-04T07:29:33.791Z,13.36
2017-10-04T07:30:33.772Z,13.36
2017-10-04T07:31:33.754Z,13.43
2017-10-04T07:32:33.723Z,13.46
2017-10-04T07:33:33.702Z,13.43
2017-10-04T07:34:33.684Z,13.47
2017-10-04T07:35:33.651Z,13.53
2017-10-04T07:36:33.635Z,13.5
2017-10-04T07:37:33.617Z,13.47
2017-10-04T07:38:33.597Z,13.51
2017-10-04T07:39:33.571Z,13.51
2017-10-04T07:40:33.561Z,13.48
2017-10-04T07:41:33.524Z,13.48
2017-10-04T07:42:33.562Z,13.51
2017-10-04T07:43:33.506Z,13.44
2017-10-04T07:44:33.465Z,13.48
2017-10-04T07:45:33.437Z,13.44
2017-10-04T07:46:33.421Z,13.5
2017-10-04T07:47:33.393Z,13.44
2017-10-04T07:48:33.377Z,13.47
2017-10-04T07:49:33.361Z,13.46
2017-10-04T07:50:33.340Z,13.51
2017-10-04T07:51:33.002Z,13.46
2017-10-04T07:52:33.293Z,13.39
2017-10-04T07:53:33.265Z,13.43
2017-10-04T07:54:32.935Z,13.48
2017-10-04T07:55:33.223Z,13.43
2017-10-04T07:56:33.202Z,13.44
2017-10-04T07:57:33.183Z,13.5
2017-10-04T07:58:33.156Z,13.5
2017-10-04T07:59:33.133Z,13.53
2017-10-04T08:00:33.118Z,13.53
2017-10-04T08:01:33.092Z,13.5
2017-10-04T08:02:33.079Z,13.47
2017-10-04T08:03:33.050Z,13.53
2017-10-04T08:04:33.028Z,13.62
2017-10-04T08:05:33.013Z,13.65
2017-10-04T08:06:32.976Z,13.66
2017-10-04T08:07:32.960Z,13.69
2017-10-04T08:08:32.638Z,13.71
2017-10-04T08:09:32.913Z,13.79
2017-10-04T08:10:32.901Z,13.72
2017-10-04T08:11:32.876Z,13.79
2017-10-04T08:12:32.851Z,13.87
2017-10-04T08:13:32.833Z,13.81
2017-10-04T08:14:32.809Z,13.79
2017-10-04T08:15:32.800Z,13.86
2017-10-04T08:16:32.767Z,13.81
2017-10-04T08:17:32.745Z,13.83
2017-10-04T08:18:32.719Z,13.83
2017-10-04T08:19:32.763Z,13.72
2017-10-04T08:20:32.692Z,13.8
2017-10-04T08:21:32.650Z,13.73
2017-10-04T08:22:32.640Z,13.86
2017-10-04T08:23:32.614Z,13.84
2017-10-04T08:24:32.592Z,13.76
2017-10-04T08:25:32.571Z,13.75
2017-10-04T08:26:32.558Z,13.79
2017-10-04T08:27:32.531Z,13.81
2017-10-04T08:28:32.201Z,13.86
2017-10-04T08:29:32.546Z,13.91
2017-10-04T08:30:32.475Z,13.91
2017-10-04T08:31:32.438Z,14.01
2017-10-04T08:32:32.421Z,13.96
2017-10-04T08:33:32.404Z,14.02
2017-10-04T08:34:32.428Z,13.99
2017-10-04T08:35:32.362Z,14.01
2017-10-04T08:36:32.338Z,13.99
2017-10-04T08:37:32.315Z,14.04
2017-10-04T08:38:32.295Z,14.19
2017-10-04T08:39:32.272Z,14.34
2017-10-04T08:40:32.245Z,14.39
2017-10-04T08:41:32.235Z,14.63
2017-10-04T08:42:32.202Z,14.85
2017-10-04T08:43:31.884Z,15.15
2017-10-04T08:44:32.169Z,15.44
2017-10-04T08:45:32.147Z,15.8
2017-10-04T08:46:32.124Z,15.98
2017-10-04T08:47:32.092Z,16.23
2017-10-04T08:48:32.079Z,16.32
2017-10-04T08:49:32.056Z,16.22
2017-10-04T08:50:32.051Z,16.17
2017-10-04T08:51:31.711Z,16.11
2017-10-04T08:52:31.996Z,16.14
2017-10-04T08:53:31.977Z,15.99
2017-10-04T08:54:31.951Z,15.99
2017-10-04T08:55:31.639Z,15.98
2017-10-04T08:56:31.606Z,15.99
2017-10-04T08:57:31.898Z,15.98
2017-10-04T08:58:31.883Z,15.85
2017-10-04T08:59:31.861Z,15.67
2017-10-04T09:00:31.834Z,15.71
2017-10-04T09:01:31.824Z,15.71
2017-10-04T09:02:31.793Z,15.81
2017-10-04T09:03:31.771Z,15.8
2017-10-04T09:04:31.754Z,15.86
2017-10-04T09:05:31.729Z,15.89
2017-10-04T09:06:31.405Z,15.91
2017-10-04T09:07:31.688Z,15.98
2017-10-04T09:08:31.672Z,15.96
2017-10-04T09:09:31.673Z,15.89
2017-10-04T09:10:31.686Z,15.86
2017-10-04T09:11:31.659Z,15.76
2017-10-04T09:12:31.588Z,15.78
2017-10-04T09:13:31.567Z,15.74
2017-10-04T09:14:31.562Z,15.6
2017-10-04T09:15:31.537Z,15.66
2017-10-04T09:16:31.509Z,15.55
2017-10-04T09:17:31.488Z,15.41
2017-10-04T09:18:31.468Z,15.43
2017-10-04T09:19:31.453Z,15.34
2017-10-04T09:20:31.434Z,15.22
2017-10-04T09:21:31.405Z,15.07
2017-10-04T09:22:31.394Z,15.09
2017-10-04T09:23:31.108Z,14.95
2017-10-04T09:24:31.087Z,14.91
2017-10-04T09:25:31.322Z,14.79
2017-10-04T09:26:31.000Z,14.69
2017-10-04T09:27:31.285Z,14.66
2017-10-04T09:28:31.260Z,14.57
2017-10-04T09:29:31.235Z,14.54
2017-10-04T09:30:31.218Z,14.46
2017-10-04T09:31:31.207Z,14.36
2017-10-04T09:32:31.182Z,14.38
2017-10-04T09:33:30.848Z,14.31
2017-10-04T09:34:31.135Z,14.29
2017-10-04T09:35:31.153Z,14.3
2017-10-04T09:36:31.136Z,14.24
2017-10-04T09:37:30.763Z,14.29
2017-10-04T09:38:31.048Z,14.41
2017-10-04T09:39:31.031Z,14.46
2017-10-04T09:40:31.069Z,14.52
2017-10-04T09:41:30.989Z,14.6
2017-10-04T09:42:30.964Z,14.59
2017-10-04T09:43:30.945Z,14.79
2017-10-04T09:44:30.925Z,14.83
2017-10-04T09:45:30.908Z,14.8
2017-10-04T09:46:30.879Z,14.83
2017-10-04T09:47:30.925Z,14.93
2017-10-04T09:48:30.836Z,14.97
2017-10-04T09:49:30.825Z,15
2017-10-04T09:50:30.801Z,15.05
2017-10-04T09:51:30.781Z,15.18
2017-10-04T09:52:30.752Z,15.13
2017-10-04T09:53:30.732Z,15.19
2017-10-04T09:54:30.714Z,15.18
2017-10-04T09:55:30.693Z,15.15
2017-10-04T09:56:30.674Z,15.15
2017-10-04T09:57:30.670Z,15.18
2017-10-04T09:58:30.621Z,15.15
2017-10-04T09:59:30.603Z,15.11
2017-10-04T10:00:30.613Z,15.12
2017-10-04T10:01:30.568Z,15.16
2017-10-04T10:02:30.548Z,15.19
2017-10-04T10:03:30.542Z,15.11
2017-10-04T10:04:30.510Z,15.05
2017-10-04T10:05:30.487Z,15.05
2017-10-04T10:06:30.464Z,14.98
2017-10-04T10:07:30.439Z,15.09
2017-10-04T10:08:30.416Z,15.01
2017-10-04T10:09:30.399Z,15
2017-10-04T10:10:30.377Z,14.97
2017-10-04T10:11:30.364Z,14.95
2017-10-04T10:12:30.333Z,14.98
2017-10-04T10:13:30.316Z,14.86
2017-10-04T10:14:30.296Z,14.87
2017-10-04T10:15:30.274Z,14.86
2017-10-04T10:16:30.256Z,14.94
2017-10-04T10:17:30.513Z,14.94
2017-10-04T10:18:30.208Z,14.91
2017-10-04T10:19:30.190Z,14.94
2017-10-04T10:20:29.857Z,14.93
2017-10-04T10:21:30.149Z,14.85
2017-10-04T10:22:30.125Z,14.85
2017-10-04T10:23:30.101Z,14.91
2017-10-04T10:24:30.078Z,14.83
2017-10-04T10:25:30.065Z,15
2017-10-04T10:26:29.728Z,14.97
2017-10-04T10:27:30.019Z,14.95
2017-10-04T10:28:29.694Z,14.94
2017-10-04T10:29:29.978Z,15.01
2017-10-04T10:30:29.955Z,15.01
2017-10-04T10:31:29.936Z,15.04
2017-10-04T10:32:29.916Z,15.11
2017-10-04T10:33:29.888Z,15.03
2017-10-04T10:34:29.878Z,15.07
2017-10-04T10:35:29.850Z,15.01
2017-10-04T10:36:29.828Z,15.13
2017-10-04T10:37:29.811Z,15.27
2017-10-04T10:38:29.789Z,15.27
2017-10-04T10:39:29.776Z,15.35
2017-10-04T10:40:29.747Z,15.23
2017-10-04T10:41:29.721Z,15.31
2017-10-04T10:42:29.703Z,15.3
2017-10-04T10:43:29.385Z,15.19
2017-10-04T10:44:29.659Z,15.23
2017-10-04T10:45:29.691Z,15.28
2017-10-04T10:46:29.627Z,15.15
2017-10-04T10:47:29.597Z,15.2
2017-10-04T10:48:29.577Z,15.18
2017-10-04T10:49:29.556Z,15.18
2017-10-04T10:50:29.535Z,15.28
2017-10-04T10:51:29.563Z,15.33
2017-10-04T10:52:29.489Z,15.4
2017-10-04T10:53:29.481Z,15.38
2017-10-04T10:54:29.461Z,15.43
2017-10-04T10:55:29.439Z,15.51
2017-10-04T10:56:29.401Z,15.52
2017-10-04T10:57:29.389Z,15.48
2017-10-04T10:58:29.365Z,15.52
2017-10-04T10:59:29.353Z,15.58
2017-10-04T11:00:29.325Z,15.66
2017-10-04T11:01:29.308Z,15.76
2017-10-04T11:02:29.290Z,15.85
2017-10-04T11:03:29.265Z,15.84
2017-10-04T11:04:29.248Z,15.86
2017-10-04T11:05:29.225Z,15.78
2017-10-04T11:06:29.207Z,15.81
2017-10-04T11:07:29.187Z,15.77
2017-10-04T11:08:29.162Z,15.71
2017-10-04T11:09:29.144Z,15.7
2017-10-04T11:10:29.117Z,15.6
2017-10-04T11:11:28.797Z,15.71
2017-10-04T11:12:28.783Z,15.68
2017-10-04T11:13:29.061Z,15.7
2017-10-04T11:14:29.048Z,15.62
2017-10-04T11:15:29.015Z,15.58
2017-10-04T11:16:29.001Z,15.53
2017-10-04T11:17:28.975Z,15.7
2017-10-04T11:18:28.958Z,15.71
2017-10-04T11:19:28.936Z,15.67
2017-10-04T11:20:28.612Z,15.77
2017-10-04T11:21:28.891Z,15.89
2017-10-04T11:22:28.871Z,15.91
2017-10-04T11:23:28.862Z,16.1
2017-10-04T11:24:28.831Z,16.11
2017-10-04T11:25:28.503Z,16.14
2017-10-04T11:26:28.808Z,16.16
2017-10-04T11:27:28.816Z,16.07
2017-10-04T11:28:28.747Z,16.1
2017-10-04T11:29:28.727Z,16.03
2017-10-04T11:30:28.711Z,16.13
2017-10-04T11:31:28.381Z,16.07
2017-10-04T11:32:28.676Z,16.1
2017-10-04T11:33:28.645Z,16.14
2017-10-04T11:34:28.635Z,16.04
2017-10-04T11:35:28.602Z,16.11
2017-10-04T11:36:28.583Z,16.1
2017-10-04T11:37:28.575Z,16.08
2017-10-04T11:38:28.235Z,16.16
2017-10-04T11:39:28.527Z,16.14
2017-10-04T11:40:28.506Z,16.26
2017-10-04T11:41:28.507Z,16.3
2017-10-04T11:42:28.469Z,16.27
2017-10-04T11:43:28.488Z,16.23
2017-10-04T11:44:28.430Z,16.27
2017-10-04T11:45:28.409Z,16.16
2017-10-04T11:46:28.377Z,16.07
2017-10-04T11:47:28.356Z,16.04
2017-10-04T11:48:28.338Z,16.06
2017-10-04T11:49:28.320Z,16.08
2017-10-04T11:50:27.996Z,16.08
2017-10-04T11:51:28.285Z,15.96
2017-10-04T11:52:28.263Z,15.96
2017-10-04T11:53:28.242Z,15.95
2017-10-04T11:54:28.218Z,15.98
2017-10-04T11:55:28.205Z,15.99
2017-10-04T11:56:28.238Z,15.98
2017-10-04T11:57:28.149Z,15.95
2017-10-04T11:58:28.146Z,15.89
2017-10-04T11:59:28.112Z,15.96
2017-10-04T12:00:28.149Z,15.86
2017-10-04T12:01:28.077Z,15.85
2017-10-04T12:02:28.055Z,15.78
2017-10-04T12:03:28.037Z,15.78
2017-10-04T12:04:28.013Z,15.77
2017-10-04T12:05:27.988Z,15.78
2017-10-04T12:06:27.983Z,15.73
2017-10-04T12:07:27.953Z,15.68
2017-10-04T12:08:27.933Z,15.51
2017-10-04T12:09:27.914Z,15.51
2017-10-04T12:10:27.886Z,15.51
2017-10-04T12:11:27.872Z,15.48
2017-10-04T12:12:27.548Z,15.4
2017-10-04T12:13:27.834Z,15.35
2017-10-04T12:14:27.801Z,15.33
2017-10-04T12:15:27.786Z,15.28
2017-10-04T12:16:27.767Z,15.25
2017-10-04T12:17:27.740Z,15.27
2017-10-04T12:18:27.721Z,15.18
2017-10-04T12:19:27.698Z,15.18
2017-10-04T12:20:27.677Z,15.13
2017-10-04T12:21:27.658Z,15.15
2017-10-04T12:22:27.629Z,15.15
2017-10-04T12:23:27.610Z,15.11
2017-10-04T12:24:27.594Z,15
2017-10-04T12:25:27.581Z,15.05
2017-10-04T12:26:27.556Z,15.09
2017-10-04T12:27:27.527Z,15.11
2017-10-04T12:28:27.510Z,15.04
2017-10-04T12:29:27.489Z,14.98
2017-10-04T12:30:27.462Z,15.05
2017-10-04T12:31:27.446Z,15.09
2017-10-04T12:32:27.470Z,15.13
2017-10-04T12:33:27.406Z,15.2
2017-10-04T12:34:27.379Z,15.2
2017-10-04T12:35:27.362Z,15.12
2017-10-04T12:36:27.046Z,15.13
2017-10-04T12:37:27.319Z,15.12
2017-10-04T12:38:27.295Z,15.19
2017-10-04T12:39:27.285Z,15.16
2017-10-04T12:40:27.251Z,15.13
2017-10-04T12:41:27.236Z,15.16
2017-10-04T12:42:27.215Z,15.13
2017-10-04T12:43:27.244Z,15.2
2017-10-04T12:44:27.221Z,15.18
2017-10-04T12:45:27.149Z,15.18
2017-10-04T12:46:27.179Z,15.27
2017-10-04T12:47:27.103Z,15.18
2017-10-04T12:48:27.079Z,15.3
2017-10-04T12:49:27.062Z,15.33
2017-10-04T12:50:27.049Z,15.25
2017-10-04T12:51:27.016Z,15.33
2017-10-04T12:52:27.000Z,15.3
2017-10-04T12:53:26.981Z,15.33
2017-10-04T12:54:26.971Z,15.3